createdAt,value
2023-02-15T00:02:08.952Z,97739.81
2023-02-15T00:04:49.412Z,97741.63
2023-02-15T00:07:21.228Z,97745.94
2023-02-15T00:09:49.982Z,97737.28
2023-02-15T00:12:18.562Z,97745.88
2023-02-15T00:14:46.984Z,97742.34
2023-02-15T00:17:15.183Z,97749.00
2023-02-15T00:19:43.429Z,97751.94
2023-02-15T00:22:11.640Z,97733.25
2023-02-15T00:24:41.232Z,97748.91
2023-02-15T00:27:10.145Z,97738.88
2023-02-15T00:29:38.555Z,97745.50
2023-02-15T00:32:07.058Z,97739.63
2023-02-15T00:34:35.447Z,97733.84
2023-02-15T00:37:03.674Z,97735.41
2023-02-15T00:39:31.854Z,97725.94
2023-02-15T00:42:01.421Z,97720.03
2023-02-15T00:44:29.672Z,97715.78
2023-02-15T00:46:58.030Z,97720.56
2023-02-15T00:49:26.314Z,97720.78
2023-02-15T00:51:54.550Z,97722.25
2023-02-15T00:54:22.757Z,97724.72
2023-02-15T00:56:51.139Z,97720.94
2023-02-15T00:59:20.710Z,97716.88
2023-02-15T01:01:48.972Z,97718.81
2023-02-15T01:04:17.222Z,97715.53
2023-02-15T01:06:45.906Z,97717.72
2023-02-15T01:09:14.610Z,97714.88
2023-02-15T01:11:42.874Z,97711.84
2023-02-15T01:14:11.572Z,97708.00
2023-02-15T01:16:41.263Z,97711.38
2023-02-15T01:19:09.491Z,97708.06
2023-02-15T01:21:37.748Z,97710.31
2023-02-15T01:24:06.190Z,97719.13
2023-02-15T01:26:34.412Z,97702.97
2023-02-15T01:29:02.653Z,97694.69
2023-02-15T01:31:31.092Z,97689.78
2023-02-15T01:34:00.820Z,97686.94
2023-02-15T01:36:29.422Z,97686.13
2023-02-15T01:38:57.756Z,97677.69
2023-02-15T01:41:27.322Z,97688.41
2023-02-15T01:43:57.218Z,97675.38
2023-02-15T01:46:29.808Z,97670.69
2023-02-15T01:49:04.490Z,97667.84
2023-02-15T01:51:35.745Z,97662.25
2023-02-15T01:54:09.046Z,97659.16
2023-02-15T01:56:38.458Z,97662.31
2023-02-15T01:59:10.975Z,97657.94
2023-02-15T02:01:39.762Z,97655.41
2023-02-15T02:04:13.896Z,97651.50
2023-02-15T02:06:42.567Z,97659.69
2023-02-15T02:09:11.296Z,97648.19
2023-02-15T02:11:41.040Z,97646.31
2023-02-15T02:14:09.602Z,97635.97
2023-02-15T02:16:44.281Z,97638.22
2023-02-15T02:19:29.854Z,97641.50
2023-02-15T02:22:15.850Z,97650.16
2023-02-15T02:25:14.072Z,97653.53
2023-02-15T02:27:43.957Z,97645.25
2023-02-15T02:30:44.038Z,97646.66
2023-02-15T02:33:50.076Z,97645.28
2023-02-15T02:36:23.966Z,97646.00
2023-02-15T02:39:06.003Z,97649.31
2023-02-15T02:41:41.031Z,97646.88
2023-02-15T02:44:15.130Z,97633.38
2023-02-15T02:46:49.200Z,97637.00
2023-02-15T02:49:18.929Z,97635.72
2023-02-15T02:51:47.234Z,97648.16
2023-02-15T02:54:15.527Z,97644.16
2023-02-15T02:56:45.830Z,97631.75
2023-02-15T02:59:18.542Z,97619.13
2023-02-15T03:01:49.598Z,97620.78
2023-02-15T03:04:21.332Z,97628.91
2023-02-15T03:06:52.562Z,97626.56
2023-02-15T03:09:25.437Z,97625.00
2023-02-15T03:11:54.678Z,97630.22
2023-02-15T03:14:22.992Z,97633.75
2023-02-15T03:16:52.334Z,97625.84
2023-02-15T03:19:25.893Z,97628.50
2023-02-15T03:22:04.812Z,97623.59
2023-02-15T03:24:38.226Z,97625.00
2023-02-15T03:27:09.277Z,97625.16
2023-02-15T03:29:38.282Z,97625.25
2023-02-15T03:32:09.462Z,97614.44
2023-02-15T03:34:39.217Z,97620.50
2023-02-15T03:37:13.340Z,97616.31
2023-02-15T03:39:45.761Z,97616.66
2023-02-15T03:42:17.232Z,97617.56
2023-02-15T03:44:51.967Z,97622.25
2023-02-15T03:47:21.803Z,97633.09
2023-02-15T03:49:55.804Z,97631.22
2023-02-15T03:52:25.702Z,97626.34
2023-02-15T03:54:54.218Z,97623.69
2023-02-15T03:57:41.738Z,97632.72
2023-02-15T04:00:32.744Z,97633.00
2023-02-15T04:03:21.022Z,97625.81
2023-02-15T04:05:51.143Z,97624.00
2023-02-15T04:08:19.424Z,97621.19
2023-02-15T04:10:57.119Z,97632.00
2023-02-15T04:13:31.349Z,97634.34
2023-02-15T04:16:05.589Z,97629.38
2023-02-15T04:18:53.436Z,97625.84
2023-02-15T04:21:41.634Z,97628.09
2023-02-15T04:24:27.406Z,97627.81
2023-02-15T04:26:56.763Z,97624.72
2023-02-15T04:29:26.307Z,97625.16
2023-02-15T04:31:55.767Z,97628.66
2023-02-15T04:34:24.035Z,97625.19
2023-02-15T04:36:53.845Z,97621.91
2023-02-15T04:39:22.105Z,97620.34
2023-02-15T04:41:50.353Z,97617.66
2023-02-15T04:44:18.582Z,97621.84
2023-02-15T04:46:46.844Z,97624.25
2023-02-15T04:49:15.084Z,97614.84
2023-02-15T04:51:43.307Z,97621.94
2023-02-15T04:54:12.894Z,97620.63
2023-02-15T04:56:41.642Z,97627.28
2023-02-15T04:59:11.725Z,97624.56
2023-02-15T05:01:40.100Z,97623.63
2023-02-15T05:04:08.464Z,97623.59
2023-02-15T05:06:36.983Z,97623.56
2023-02-15T05:09:05.595Z,97621.38
2023-02-15T05:11:35.508Z,97617.69
2023-02-15T05:14:03.707Z,97625.44
2023-02-15T05:16:32.023Z,97632.72
2023-02-15T05:19:00.349Z,97636.78
2023-02-15T05:21:28.644Z,97635.28
2023-02-15T05:23:56.857Z,97627.19
2023-02-15T05:26:43.883Z,97635.75
2023-02-15T05:29:13.483Z,97634.56
2023-02-15T05:31:41.985Z,97629.22
2023-02-15T05:34:10.383Z,97619.50
2023-02-15T05:36:38.600Z,97623.06
2023-02-15T05:39:08.057Z,97630.28
2023-02-15T05:41:36.332Z,97629.03
2023-02-15T05:44:04.513Z,97641.56
2023-02-15T05:46:34.117Z,97635.94
2023-02-15T05:49:02.425Z,97639.25
2023-02-15T05:51:30.649Z,97637.38
2023-02-15T05:53:58.887Z,97633.38
2023-02-15T05:56:27.101Z,97640.97
2023-02-15T05:58:55.879Z,97646.66
2023-02-15T06:01:24.198Z,97649.50
2023-02-15T06:03:55.024Z,97647.34
2023-02-15T06:06:23.388Z,97652.56
2023-02-15T06:08:51.865Z,97644.38
2023-02-15T06:11:20.113Z,97644.69
2023-02-15T06:13:48.405Z,97652.88
2023-02-15T06:16:17.276Z,97643.38
2023-02-15T06:18:45.628Z,97639.50
2023-02-15T06:21:15.430Z,97645.22
2023-02-15T06:23:44.130Z,97640.66
2023-02-15T06:26:12.390Z,97645.28
2023-02-15T06:28:42.087Z,97652.25
2023-02-15T06:31:10.426Z,97663.38
2023-02-15T06:33:39.219Z,97651.88
2023-02-15T06:36:08.285Z,97651.03
2023-02-15T06:38:37.938Z,97661.19
2023-02-15T06:41:06.265Z,97657.88
2023-02-15T06:43:35.100Z,97666.38
2023-02-15T06:46:03.654Z,97665.22
2023-02-15T06:48:32.071Z,97671.94
2023-02-15T06:51:00.347Z,97670.38
2023-02-15T06:53:28.560Z,97665.31
2023-02-15T06:56:07.341Z,97663.06
2023-02-15T06:58:35.699Z,97662.44
2023-02-15T07:01:04.031Z,97662.91
2023-02-15T07:03:32.715Z,97671.63
2023-02-15T07:06:02.727Z,97657.81
2023-02-15T07:08:31.641Z,97669.00
2023-02-15T07:11:20.494Z,97671.97
2023-02-15T07:13:49.115Z,97665.88
2023-02-15T07:16:17.522Z,97663.16
2023-02-15T07:18:45.833Z,97666.03
2023-02-15T07:21:14.099Z,97672.06
2023-02-15T07:23:42.441Z,97654.97
2023-02-15T07:26:10.848Z,97665.75
2023-02-15T07:28:39.243Z,97663.97
2023-02-15T07:31:08.885Z,97667.63
2023-02-15T07:33:37.457Z,97654.44
2023-02-15T07:36:06.790Z,97659.03
2023-02-15T07:38:37.057Z,97664.78
2023-02-15T07:41:06.837Z,97655.28
2023-02-15T07:43:36.207Z,97661.34
2023-02-15T07:46:05.776Z,97653.81
2023-02-15T07:48:35.662Z,97661.91
2023-02-15T07:51:05.532Z,97660.00
2023-02-15T07:53:34.515Z,97658.72
2023-02-15T07:56:03.099Z,97656.19
2023-02-15T07:58:45.529Z,97653.53
2023-02-15T08:01:13.911Z,97647.97
2023-02-15T08:03:43.706Z,97645.81
2023-02-15T08:06:12.503Z,97656.03
2023-02-15T08:08:41.439Z,97655.88
2023-02-15T08:11:31.467Z,97647.78
2023-02-15T08:14:01.315Z,97648.03
2023-02-15T08:16:32.071Z,97648.53
2023-02-15T08:19:03.918Z,97645.41
2023-02-15T08:21:33.701Z,97646.34
2023-02-15T08:24:02.100Z,97650.81
2023-02-15T08:26:31.353Z,97655.97
2023-02-15T08:29:00.721Z,97660.78
2023-02-15T08:31:29.280Z,97652.28
2023-02-15T08:33:58.365Z,97651.13
2023-02-15T08:36:29.696Z,97644.25
2023-02-15T08:39:00.258Z,97645.75
2023-02-15T08:41:28.783Z,97640.75
2023-02-15T08:43:57.984Z,97647.44
2023-02-15T08:46:28.165Z,97630.75
2023-02-15T08:48:56.795Z,97643.88
2023-02-15T08:51:26.613Z,97644.09
2023-02-15T08:53:58.108Z,97639.31
2023-02-15T08:56:28.178Z,97638.06
2023-02-15T08:58:57.195Z,97630.84
2023-02-15T09:01:26.957Z,97648.63
2023-02-15T09:03:58.988Z,97637.66
2023-02-15T09:06:28.095Z,97641.59
2023-02-15T09:08:58.533Z,97638.94
2023-02-15T09:11:28.657Z,97632.28
2023-02-15T09:13:58.255Z,97635.94
2023-02-15T09:16:27.955Z,97642.91
2023-02-15T09:18:58.480Z,97642.72
2023-02-15T09:21:27.798Z,97640.28
2023-02-15T09:24:00.708Z,97640.03
2023-02-15T09:26:30.597Z,97640.91
2023-02-15T09:29:01.810Z,97641.59
2023-02-15T09:31:31.884Z,97640.28
2023-02-15T09:34:02.691Z,97645.00
2023-02-15T09:36:32.557Z,97640.97
2023-02-15T09:39:06.871Z,97646.16
2023-02-15T09:42:11.147Z,97647.25
2023-02-15T09:44:54.574Z,97641.81
2023-02-15T09:47:46.137Z,97630.34
2023-02-15T09:50:19.143Z,97632.97
2023-02-15T09:52:58.020Z,97641.06
2023-02-15T09:55:48.427Z,97637.69
2023-02-15T09:58:19.107Z,97637.47
2023-02-15T10:00:53.142Z,97640.66
2023-02-15T10:03:34.805Z,97637.25
2023-02-15T10:06:18.114Z,97632.84
2023-02-15T10:08:56.980Z,97630.13
2023-02-15T10:11:43.564Z,97640.88
2023-02-15T10:14:38.696Z,97640.25
2023-02-15T10:17:16.404Z,97638.34
2023-02-15T10:19:50.598Z,97634.34
2023-02-15T10:22:26.746Z,97631.97
2023-02-15T10:25:13.008Z,97635.34
2023-02-15T10:27:48.290Z,97634.22
2023-02-15T10:30:17.989Z,97618.19
2023-02-15T10:33:00.288Z,97615.75
2023-02-15T10:35:35.847Z,97612.72
2023-02-15T10:38:23.090Z,97614.63
2023-02-15T10:41:00.867Z,97608.53
2023-02-15T10:43:43.720Z,97619.19
2023-02-15T10:46:19.762Z,97624.78
2023-02-15T10:49:13.984Z,97622.91
2023-02-15T10:51:50.514Z,97612.53
2023-02-15T10:54:26.912Z,97615.66
2023-02-15T10:57:00.909Z,97597.25
2023-02-15T10:59:43.546Z,97602.34
2023-02-15T11:02:20.921Z,97597.69
2023-02-15T11:04:59.453Z,97586.38
2023-02-15T11:07:30.524Z,97589.84
2023-02-15T11:10:04.153Z,97586.22
2023-02-15T11:12:33.842Z,97574.38
2023-02-15T11:15:06.557Z,97575.53
2023-02-15T11:17:38.103Z,97565.88
2023-02-15T11:20:14.296Z,97572.13
2023-02-15T11:22:42.715Z,97556.94
2023-02-15T11:25:19.767Z,97561.94
2023-02-15T11:27:49.922Z,97563.09
2023-02-15T11:30:23.943Z,97555.84
2023-02-15T11:32:55.346Z,97546.41
2023-02-15T11:35:28.460Z,97542.94
2023-02-15T11:38:01.164Z,97540.56
2023-02-15T11:40:30.739Z,97535.41
2023-02-15T11:43:02.342Z,97529.97
2023-02-15T11:45:33.281Z,97524.81
2023-02-15T11:48:02.003Z,97524.41
2023-02-15T11:50:32.995Z,97517.56
2023-02-15T11:53:03.322Z,97510.13
2023-02-15T11:55:32.093Z,97514.28
2023-02-15T11:58:04.900Z,97513.72
2023-02-15T12:00:37.852Z,97504.50
2023-02-15T12:03:11.984Z,97506.88
2023-02-15T12:05:42.587Z,97507.94
2023-02-15T12:08:12.614Z,97505.63
2023-02-15T12:10:48.947Z,97506.16
2023-02-15T12:13:19.085Z,97501.56
2023-02-15T12:15:50.552Z,97495.16
2023-02-15T12:18:26.388Z,97493.00
2023-02-15T12:20:54.646Z,97495.13
2023-02-15T12:23:23.003Z,97488.91
2023-02-15T12:25:54.491Z,97491.19
2023-02-15T12:28:27.613Z,97483.72
2023-02-15T12:30:57.705Z,97484.50
2023-02-15T12:33:31.521Z,97479.03
2023-02-15T12:36:02.968Z,97467.63
2023-02-15T12:38:31.583Z,97476.25
2023-02-15T12:41:02.784Z,97475.91
2023-02-15T12:43:34.715Z,97473.31
2023-02-15T12:46:22.485Z,97472.50
2023-02-15T12:49:08.726Z,97478.53
2023-02-15T12:51:48.337Z,97478.84
2023-02-15T12:54:36.384Z,97474.31
2023-02-15T12:57:32.048Z,97466.72
2023-02-15T13:00:02.542Z,97466.47
2023-02-15T13:02:38.518Z,97458.88
2023-02-15T13:05:19.500Z,97449.53
2023-02-15T13:07:51.303Z,97444.31
2023-02-15T13:10:27.802Z,97446.84
2023-02-15T13:12:58.679Z,97450.56
2023-02-15T13:15:36.299Z,97436.03
2023-02-15T13:18:07.781Z,97437.66
2023-02-15T13:20:37.380Z,97428.97
2023-02-15T13:23:08.292Z,97434.88
2023-02-15T13:25:42.571Z,97418.50
2023-02-15T13:28:16.067Z,97427.09
2023-02-15T13:30:46.065Z,97414.63
2023-02-15T13:33:20.289Z,97413.50
2023-02-15T13:35:53.805Z,97413.25
2023-02-15T13:38:48.576Z,97406.56
2023-02-15T13:41:19.290Z,97414.06
2023-02-15T13:43:54.757Z,97418.25
2023-02-15T13:46:36.435Z,97409.78
2023-02-15T13:49:18.048Z,97421.84
2023-02-15T13:51:52.897Z,97416.88
2023-02-15T13:54:34.886Z,97422.59
2023-02-15T13:57:29.525Z,97424.19
2023-02-15T14:00:05.368Z,97416.38
2023-02-15T14:02:45.199Z,97413.97
2023-02-15T14:05:34.228Z,97415.41
2023-02-15T14:08:08.690Z,97405.56
2023-02-15T14:10:49.151Z,97416.25
2023-02-15T14:13:40.825Z,97409.88
2023-02-15T14:16:14.168Z,97407.03
2023-02-15T14:18:45.208Z,97409.63
2023-02-15T14:21:19.256Z,97405.47
2023-02-15T14:23:56.645Z,97402.09
2023-02-15T14:26:35.224Z,97397.56
2023-02-15T14:29:12.934Z,97398.47
2023-02-15T14:31:43.724Z,97390.38
2023-02-15T14:34:21.504Z,97392.69
2023-02-15T14:36:51.974Z,97394.34
2023-02-15T14:39:49.532Z,97389.38
2023-02-15T14:42:23.050Z,97391.66
2023-02-15T14:44:56.401Z,97383.09
2023-02-15T14:47:29.046Z,97388.00
2023-02-15T14:49:57.397Z,97388.91
2023-02-15T14:52:27.116Z,97385.56
2023-02-15T14:54:58.033Z,97388.81
2023-02-15T14:57:28.752Z,97385.72
2023-02-15T14:59:59.249Z,97387.34
2023-02-15T15:02:29.861Z,97385.28
2023-02-15T15:05:02.257Z,97389.53
2023-02-15T15:07:40.242Z,97376.44
2023-02-15T15:10:37.712Z,97383.06
2023-02-15T15:13:39.001Z,97379.28
2023-02-15T15:16:27.041Z,97391.47
2023-02-15T15:18:56.054Z,97380.78
2023-02-15T15:21:55.927Z,97381.25
2023-02-15T15:24:53.205Z,97384.88
2023-02-15T15:27:51.255Z,97386.13
2023-02-15T15:31:02.012Z,97391.16
2023-02-15T15:33:47.392Z,97381.25
2023-02-15T15:36:53.475Z,97394.16
2023-02-15T15:39:56.538Z,97395.69
2023-02-15T15:42:34.970Z,97387.53
2023-02-15T15:45:38.698Z,97399.31
2023-02-15T15:48:23.308Z,97396.88
2023-02-15T15:50:55.319Z,97400.31
2023-02-15T15:53:26.578Z,97398.00
2023-02-15T15:55:58.756Z,97405.78
2023-02-15T15:58:27.196Z,97408.84
2023-02-15T16:00:59.069Z,97409.47
2023-02-15T16:03:29.032Z,97411.97
2023-02-15T16:06:01.391Z,97411.97
2023-02-15T16:08:32.846Z,97411.13
2023-02-15T16:11:02.871Z,97407.78
2023-02-15T16:13:31.796Z,97412.72
2023-02-15T16:16:01.973Z,97410.84
2023-02-15T16:18:30.548Z,97416.19
2023-02-15T16:21:01.238Z,97418.94
2023-02-15T16:23:52.666Z,97417.94
2023-02-15T16:26:34.254Z,97423.13
2023-02-15T16:29:02.687Z,97425.66
2023-02-15T16:31:32.398Z,97423.09
2023-02-15T16:34:00.777Z,97419.38
2023-02-15T16:36:30.120Z,97422.09
2023-02-15T16:39:25.628Z,97414.91
2023-02-15T16:41:56.897Z,97423.09
2023-02-15T16:44:25.306Z,97423.28
2023-02-15T16:46:55.884Z,97429.63
2023-02-15T16:49:25.084Z,97438.47
2023-02-15T16:51:57.927Z,97440.03
2023-02-15T16:54:27.065Z,97438.72
2023-02-15T16:56:55.578Z,97431.78
2023-02-15T16:59:32.165Z,97427.13
2023-02-15T17:02:02.211Z,97429.50
2023-02-15T17:04:33.202Z,97431.81
2023-02-15T17:07:05.116Z,97433.84
2023-02-15T17:09:34.267Z,97431.31
2023-02-15T17:12:03.247Z,97440.75
2023-02-15T17:14:33.191Z,97440.75
2023-02-15T17:17:04.989Z,97439.13
2023-02-15T17:19:34.956Z,97441.28
2023-02-15T17:22:04.774Z,97438.66
2023-02-15T17:24:42.122Z,97440.44
2023-02-15T17:27:16.324Z,97451.06
2023-02-15T17:29:47.500Z,97455.22
2023-02-15T17:32:20.406Z,97465.44
2023-02-15T17:35:00.238Z,97472.50
2023-02-15T17:37:31.724Z,97479.97
2023-02-15T17:40:01.625Z,97474.63
2023-02-15T17:42:30.207Z,97473.13
2023-02-15T17:44:58.492Z,97467.94
2023-02-15T17:47:30.141Z,97453.88
2023-02-15T17:49:58.528Z,97464.06
2023-02-15T17:52:30.532Z,97456.38
2023-02-15T17:55:16.362Z,97457.19
2023-02-15T17:57:44.578Z,97464.69
2023-02-15T18:00:33.620Z,97476.19
2023-02-15T18:03:20.801Z,97475.81
2023-02-15T18:06:06.742Z,97475.53
2023-02-15T18:08:52.508Z,97477.28
2023-02-15T18:11:37.447Z,97477.97
2023-02-15T18:14:06.757Z,97470.13
2023-02-15T18:16:36.609Z,97483.78
2023-02-15T18:19:06.832Z,97477.25
2023-02-15T18:21:35.014Z,97486.50
2023-02-15T18:24:03.205Z,97483.53
2023-02-15T18:26:31.493Z,97483.78
2023-02-15T18:28:59.697Z,97481.75
2023-02-15T18:31:28.118Z,97465.72
2023-02-15T18:33:58.619Z,97468.81
2023-02-15T18:36:32.528Z,97465.28
2023-02-15T18:39:05.778Z,97464.13
2023-02-15T18:41:35.932Z,97456.91
2023-02-15T18:44:04.173Z,97456.59
2023-02-15T18:46:32.426Z,97458.22
2023-02-15T18:49:00.649Z,97485.03
2023-02-15T18:51:30.265Z,97471.09
2023-02-15T18:53:59.223Z,97475.03
2023-02-15T18:56:27.502Z,97474.22
2023-02-15T18:58:55.729Z,97477.09
2023-02-15T19:01:24.006Z,97477.09
2023-02-15T19:03:52.909Z,97483.09
2023-02-15T19:06:23.062Z,97473.22
2023-02-15T19:08:53.640Z,97481.47
2023-02-15T19:11:25.641Z,97479.22
2023-02-15T19:13:55.368Z,97480.50
2023-02-15T19:16:31.486Z,97478.41
2023-02-15T19:18:59.989Z,97489.31
2023-02-15T19:21:29.808Z,97494.22
2023-02-15T19:24:00.994Z,97487.75
2023-02-15T19:26:44.571Z,97487.78
2023-02-15T19:29:14.974Z,97484.44
2023-02-15T19:31:43.777Z,97486.41
2023-02-15T19:34:14.713Z,97488.31
2023-02-15T19:36:43.397Z,97481.44
2023-02-15T19:39:23.867Z,97479.81
2023-02-15T19:41:52.239Z,97488.03
2023-02-15T19:44:20.563Z,97485.81
2023-02-15T19:46:48.920Z,97479.53
2023-02-15T19:49:17.196Z,97486.63
2023-02-15T19:51:45.455Z,97489.22
2023-02-15T19:54:30.911Z,97489.19
2023-02-15T19:56:59.216Z,97483.56
2023-02-15T19:59:29.110Z,97481.81
2023-02-15T20:01:57.429Z,97470.47
2023-02-15T20:04:25.801Z,97472.53
2023-02-15T20:06:56.570Z,97479.66
2023-02-15T20:09:26.821Z,97474.41
2023-02-15T20:11:56.523Z,97479.03
2023-02-15T20:14:25.102Z,97478.84
2023-02-15T20:16:53.404Z,97465.75
2023-02-15T20:19:21.597Z,97481.31
2023-02-15T20:21:54.404Z,97470.63
2023-02-15T20:24:23.504Z,97477.50
2023-02-15T20:26:51.822Z,97471.66
2023-02-15T20:29:21.407Z,97469.78
2023-02-15T20:31:49.870Z,97477.16
2023-02-15T20:34:18.186Z,97476.75
2023-02-15T20:36:46.444Z,97471.28
2023-02-15T20:39:16.461Z,97467.06
2023-02-15T20:41:48.169Z,97456.38
2023-02-15T20:44:23.237Z,97464.72
2023-02-15T20:46:54.519Z,97463.22
2023-02-15T20:49:24.024Z,97459.19
2023-02-15T20:51:52.819Z,97454.84
2023-02-15T20:54:22.995Z,97465.28
2023-02-15T20:56:51.252Z,97468.00
2023-02-15T20:59:29.055Z,97472.19
2023-02-15T21:02:00.157Z,97470.34
2023-02-15T21:04:31.445Z,97459.91
2023-02-15T21:07:00.077Z,97456.00
2023-02-15T21:09:28.584Z,97461.13
2023-02-15T21:11:57.968Z,97469.94
2023-02-15T21:14:28.130Z,97455.91
2023-02-15T21:16:56.389Z,97455.59
2023-02-15T21:19:25.700Z,97459.56
2023-02-15T21:21:54.415Z,97458.03
2023-02-15T21:24:24.973Z,97462.56
2023-02-15T21:26:53.336Z,97471.94
2023-02-15T21:29:22.859Z,97478.94
2023-02-15T21:31:52.740Z,97468.38
2023-02-15T21:34:21.585Z,97470.81
2023-02-15T21:36:51.316Z,97472.66
2023-02-15T21:39:21.467Z,97473.25
2023-02-15T21:42:08.924Z,97469.19
2023-02-15T21:44:54.803Z,97457.50
2023-02-15T21:47:48.766Z,97462.00
2023-02-15T21:50:36.859Z,97464.44
2023-02-15T21:53:05.965Z,97457.97
2023-02-15T21:55:34.466Z,97463.66
2023-02-15T21:58:03.379Z,97467.25
2023-02-15T22:00:31.916Z,97456.38
2023-02-15T22:03:02.098Z,97466.03
2023-02-15T22:05:32.245Z,97458.09
2023-02-15T22:08:00.879Z,97463.31
2023-02-15T22:10:32.008Z,97463.63
2023-02-15T22:13:01.309Z,97465.13
2023-02-15T22:15:33.489Z,97466.25
2023-02-15T22:18:03.407Z,97464.91
2023-02-15T22:20:32.087Z,97470.06
2023-02-15T22:23:00.467Z,97468.66
2023-02-15T22:25:28.828Z,97461.81
2023-02-15T22:27:57.200Z,97456.38
2023-02-15T22:30:27.836Z,97454.03
2023-02-15T22:32:56.714Z,97448.91
2023-02-15T22:35:28.260Z,97444.53
2023-02-15T22:37:57.017Z,97441.59
2023-02-15T22:40:29.150Z,97441.63
2023-02-15T22:42:58.394Z,97440.34
2023-02-15T22:45:29.036Z,97440.53
2023-02-15T22:47:59.108Z,97444.16
2023-02-15T22:50:30.364Z,97431.38
2023-02-15T22:53:00.883Z,97432.81
2023-02-15T22:55:29.745Z,97432.28
2023-02-15T22:57:59.034Z,97439.94
2023-02-15T23:00:29.014Z,97435.38
2023-02-15T23:02:57.302Z,97430.63
2023-02-15T23:05:28.956Z,97431.69
2023-02-15T23:07:57.854Z,97421.50
2023-02-15T23:10:27.386Z,97427.19
2023-02-15T23:13:15.260Z,97423.78
2023-02-15T23:15:44.980Z,97431.75
2023-02-15T23:18:18.300Z,97427.34
2023-02-15T23:20:49.976Z,97422.47
2023-02-15T23:23:19.284Z,97421.81
2023-02-15T23:25:47.503Z,97411.84
2023-02-15T23:28:20.799Z,97423.31
2023-02-15T23:30:49.217Z,97422.94
2023-02-15T23:33:20.883Z,97419.66
2023-02-15T23:35:51.214Z,97426.97
2023-02-15T23:38:21.942Z,97429.06
2023-02-15T23:41:09.939Z,97426.19
2023-02-15T23:43:38.626Z,97426.69
2023-02-15T23:46:08.148Z,97419.00
2023-02-15T23:48:39.179Z,97424.16
2023-02-15T23:51:11.362Z,97431.00
2023-02-15T23:53:39.739Z,97430.56
2023-02-15T23:56:08.214Z,97421.06
2023-02-15T23:58:40.277Z,97424.16
